createdAt,value
2018-06-01T00:00:34.722Z,26.10
2018-06-01T00:03:06.078Z,29.25
2018-06-01T00:05:36.014Z,27.35
2018-06-01T00:08:07.815Z,27.45
2018-06-01T00:10:40.889Z,43.38
2018-06-01T00:13:15.388Z,33.45
2018-06-01T00:15:48.940Z,33.33
2018-06-01T00:18:23.401Z,39.25
2018-06-01T00:20:56.450Z,33.97
2018-06-01T00:23:30.209Z,33.88
2018-06-01T00:26:03.093Z,33.03
2018-06-01T00:28:36.334Z,35.72
2018-06-01T00:31:11.417Z,37.33
2018-06-01T00:33:44.696Z,39.78
2018-06-01T00:36:17.785Z,41.85
2018-06-01T00:38:47.831Z,38.35
2018-06-01T00:41:19.459Z,38.20
2018-06-01T00:43:52.319Z,39.40
2018-06-01T00:46:26.995Z,37.47
2018-06-01T00:48:57.757Z,41.83
2018-06-01T00:51:30.502Z,31.92
2018-06-01T00:54:02.539Z,35.33
2018-06-01T00:56:34.409Z,35.35
2018-06-01T00:59:04.632Z,40.45
2018-06-01T01:01:39.659Z,40.20
2018-06-01T01:04:14.306Z,43.03
2018-06-01T01:06:49.226Z,37.28
2018-06-01T01:09:22.450Z,42.95
2018-06-01T01:11:55.936Z,44.40
2018-06-01T01:14:29.549Z,41.95
2018-06-01T01:17:04.577Z,45.75
2018-06-01T01:19:36.284Z,43.00
2018-06-01T01:22:07.806Z,43.55
2018-06-01T01:24:39.451Z,40.75
2018-06-01T01:27:14.084Z,40.67
2018-06-01T01:29:47.223Z,44.20
2018-06-01T01:32:18.853Z,42.05
2018-06-01T01:34:51.798Z,40.33
2018-06-01T01:37:34.363Z,42.88
2018-06-01T01:40:07.325Z,40.97
2018-06-01T01:42:40.999Z,42.65
2018-06-01T01:45:14.008Z,42.30
2018-06-01T01:47:44.073Z,41.17
2018-06-01T01:50:17.670Z,36.42
2018-06-01T01:52:52.436Z,35.95
2018-06-01T01:55:25.543Z,33.28
2018-06-01T01:57:57.194Z,32.15
2018-06-01T02:00:30.391Z,35.17
2018-06-01T02:03:02.019Z,42.95
2018-06-01T02:05:33.747Z,34.78
2018-06-01T02:08:06.986Z,37.22
2018-06-01T02:10:41.837Z,32.80
2018-06-01T02:13:14.352Z,43.35
2018-06-01T02:15:45.813Z,46.85
2018-06-01T02:18:18.965Z,47.05
2018-06-01T02:20:51.039Z,42.92
2018-06-01T02:23:22.822Z,46.92
2018-06-01T02:25:57.532Z,51.30
2018-06-01T02:28:32.092Z,48.17
2018-06-01T02:31:02.207Z,58.17
2018-06-01T02:33:34.018Z,51.15
2018-06-01T02:36:05.728Z,43.83
2018-06-01T02:38:37.555Z,45.95
2018-06-01T02:41:09.167Z,44.40
2018-06-01T02:43:40.787Z,32.25
2018-06-01T02:46:15.376Z,32.72
2018-06-01T02:48:46.913Z,30.70
2018-06-01T02:51:17.077Z,30.67
2018-06-01T02:53:47.757Z,31.42
2018-06-01T02:56:20.290Z,35.47
2018-06-01T02:58:50.570Z,31.85
2018-06-01T03:01:22.612Z,30.75
2018-06-01T03:03:54.324Z,29.05
2018-06-01T03:06:27.265Z,28.17
2018-06-01T03:09:00.447Z,24.90
2018-06-01T03:11:33.569Z,36.75
2018-06-01T03:14:06.609Z,54.90
2018-06-01T03:16:38.867Z,51.05
2018-06-01T03:19:10.437Z,54.58
2018-06-01T03:21:44.966Z,52.10
2018-06-01T03:24:18.274Z,61.55
2018-06-01T03:26:51.314Z,67.95
2018-06-01T03:29:22.772Z,68.85
2018-06-01T03:31:54.395Z,67.70
2018-06-01T03:34:27.288Z,68.72
2018-06-01T03:36:59.824Z,65.97
2018-06-01T03:39:33.605Z,63.70
2018-06-01T03:42:05.355Z,65.70
2018-06-01T03:44:38.472Z,63.15
2018-06-01T03:47:12.025Z,63.30
2018-06-01T03:49:44.912Z,60.80
2018-06-01T03:52:18.389Z,59.47
2018-06-01T03:54:51.258Z,61.75
2018-06-01T03:57:24.370Z,58.13
2018-06-01T03:59:55.930Z,60.45
2018-06-01T04:02:30.821Z,59.75
2018-06-01T04:05:02.472Z,59.15
2018-06-01T04:07:35.934Z,60.38
2018-06-01T04:10:08.986Z,63.72
2018-06-01T04:12:39.058Z,63.08
2018-06-01T04:15:12.211Z,59.92
2018-06-01T04:17:44.469Z,59.85
2018-06-01T04:20:17.757Z,62.83
2018-06-01T04:22:50.978Z,61.30
2018-06-01T04:25:25.403Z,60.70
2018-06-01T04:27:58.509Z,57.03
2018-06-01T04:30:29.428Z,57.60
2018-06-01T04:33:01.065Z,53.67
2018-06-01T04:35:34.385Z,53.05
2018-06-01T04:38:07.634Z,49.15
2018-06-01T04:40:39.123Z,48.35
2018-06-01T04:43:12.514Z,48.50
2018-06-01T04:45:45.749Z,52.35
2018-06-01T04:48:18.972Z,51.37
2018-06-01T04:50:51.858Z,53.50
2018-06-01T04:53:24.623Z,60.42
2018-06-01T04:55:58.444Z,60.60
2018-06-01T04:58:31.548Z,64.25
2018-06-01T05:01:04.699Z,67.47
2018-06-01T05:03:37.912Z,70.93
2018-06-01T05:06:09.667Z,65.35
2018-06-01T05:08:41.369Z,67.90
2018-06-01T05:11:13.225Z,71.20
2018-06-01T05:13:46.486Z,78.62
2018-06-01T05:16:19.631Z,73.72
2018-06-01T05:18:51.351Z,80.18
2018-06-01T05:21:23.154Z,80.00
2018-06-01T05:23:54.912Z,82.40
2018-06-01T05:26:29.553Z,86.00
2018-06-01T05:29:02.753Z,82.05
2018-06-01T05:31:34.391Z,86.93
2018-06-01T05:34:07.447Z,85.12
2018-06-01T05:36:39.200Z,84.28
2018-06-01T05:39:14.382Z,120.82
2018-06-01T05:41:47.533Z,111.75
2018-06-01T05:44:22.023Z,94.05
2018-06-01T05:46:55.400Z,84.80
2018-06-01T05:49:29.863Z,86.37
2018-06-01T05:52:04.335Z,85.57
2018-06-01T05:54:35.959Z,82.70
2018-06-01T05:57:09.850Z,80.05
2018-06-01T05:59:44.715Z,82.28
2018-06-01T06:02:16.349Z,87.15
2018-06-01T06:04:48.016Z,82.62
2018-06-01T06:07:20.610Z,79.20
2018-06-01T06:09:52.118Z,76.80
2018-06-01T06:12:23.915Z,79.60
2018-06-01T06:14:56.615Z,81.18
2018-06-01T06:17:30.432Z,79.57
2018-06-01T06:20:02.984Z,75.12
2018-06-01T06:22:35.930Z,74.22
2018-06-01T06:25:10.952Z,71.85
2018-06-01T06:27:43.446Z,70.62
2018-06-01T06:30:16.521Z,70.90
2018-06-01T06:32:51.068Z,76.35
2018-06-01T06:35:22.755Z,71.62
2018-06-01T06:37:54.268Z,74.82
2018-06-01T06:40:24.252Z,71.93
2018-06-01T06:42:58.915Z,71.53
2018-06-01T06:45:33.445Z,70.37
2018-06-01T06:48:06.356Z,71.72
2018-06-01T06:50:39.415Z,71.18
2018-06-01T06:53:09.469Z,72.15
2018-06-01T06:55:43.380Z,70.07
2018-06-01T06:58:15.332Z,69.72
2018-06-01T07:00:49.847Z,73.70
2018-06-01T07:03:22.778Z,73.05
2018-06-01T07:05:57.399Z,73.32
2018-06-01T07:08:28.955Z,74.50
2018-06-01T07:11:03.383Z,71.12
2018-06-01T07:13:36.594Z,71.90
2018-06-01T07:16:06.552Z,70.25
2018-06-01T07:18:39.543Z,70.70
2018-06-01T07:21:11.206Z,74.10
2018-06-01T07:23:44.150Z,74.65
2018-06-01T07:26:15.643Z,70.90
2018-06-01T07:28:47.068Z,70.50
2018-06-01T07:31:20.293Z,73.00
2018-06-01T07:33:55.843Z,72.57
2018-06-01T07:36:27.516Z,74.45
2018-06-01T07:38:59.371Z,72.80
2018-06-01T07:41:32.230Z,69.15
2018-06-01T07:44:03.777Z,73.47
2018-06-01T07:46:38.193Z,74.62
2018-06-01T07:49:11.156Z,71.07
2018-06-01T07:51:44.294Z,69.03
2018-06-01T07:54:16.007Z,71.20
2018-06-01T07:56:49.120Z,70.70
2018-06-01T07:59:20.501Z,72.40
2018-06-01T08:01:51.893Z,71.75
2018-06-01T08:04:23.342Z,70.37
2018-06-01T08:06:55.463Z,68.85
2018-06-01T08:09:27.006Z,63.60
2018-06-01T08:11:59.994Z,59.35
2018-06-01T08:14:31.398Z,60.42
2018-06-01T08:17:04.287Z,53.58
2018-06-01T08:19:36.418Z,49.20
2018-06-01T08:22:07.302Z,51.20
2018-06-01T08:24:40.191Z,47.33
2018-06-01T08:27:13.034Z,49.05
2018-06-01T08:29:44.344Z,41.63
2018-06-01T08:32:17.443Z,39.85
2018-06-01T08:34:48.327Z,39.90
2018-06-01T08:37:21.286Z,40.45
2018-06-01T08:39:54.440Z,41.88
2018-06-01T08:42:27.424Z,40.20
2018-06-01T08:44:59.226Z,37.97
2018-06-01T08:47:30.598Z,41.85
2018-06-01T08:50:02.065Z,42.83
2018-06-01T08:52:33.700Z,42.47
2018-06-01T08:55:07.989Z,39.08
2018-06-01T08:57:41.022Z,43.13
2018-06-01T09:00:14.039Z,39.55
2018-06-01T09:02:43.937Z,40.25
2018-06-01T09:05:15.512Z,38.88
2018-06-01T09:07:50.066Z,37.78
2018-06-01T09:10:21.619Z,38.53
2018-06-01T09:12:52.989Z,37.38
2018-06-01T09:15:26.926Z,36.88
2018-06-01T09:17:59.765Z,34.38
2018-06-01T09:20:32.741Z,32.15
2018-06-01T09:23:04.459Z,31.17
2018-06-01T09:25:35.970Z,30.33
2018-06-01T09:28:07.618Z,28.75
2018-06-01T09:30:39.611Z,26.83
2018-06-01T09:33:11.080Z,24.48
2018-06-01T09:35:41.570Z,24.40
2018-06-01T09:38:13.688Z,24.60
2018-06-01T09:40:43.572Z,23.50
2018-06-01T09:43:15.024Z,23.60
2018-06-01T09:45:48.194Z,23.33
2018-06-01T09:48:22.499Z,23.23
2018-06-01T09:50:53.887Z,22.87
2018-06-01T09:53:26.837Z,21.90
2018-06-01T09:55:58.358Z,22.92
2018-06-01T09:58:29.773Z,23.83
2018-06-01T10:01:03.126Z,26.42
2018-06-01T10:03:34.706Z,27.35
2018-06-01T10:06:07.997Z,27.15
2018-06-01T10:08:42.385Z,24.77
2018-06-01T10:11:13.829Z,24.15
2018-06-01T10:13:46.693Z,25.60
2018-06-01T10:16:20.898Z,24.55
2018-06-01T10:18:52.409Z,24.40
2018-06-01T10:21:26.514Z,25.55
2018-06-01T10:23:59.660Z,26.00
2018-06-01T10:26:32.650Z,27.87
2018-06-01T10:29:04.086Z,27.48
2018-06-01T10:31:35.633Z,28.70
2018-06-01T10:34:07.211Z,27.27
2018-06-01T10:36:37.117Z,29.40
2018-06-01T10:39:11.206Z,27.13
2018-06-01T10:41:43.999Z,26.45
2018-06-01T10:44:17.017Z,24.20
2018-06-01T10:46:48.691Z,24.95
2018-06-01T10:49:21.563Z,25.48
2018-06-01T10:51:55.041Z,26.08
2018-06-01T10:54:26.516Z,28.77
2018-06-01T10:57:01.287Z,29.67
2018-06-01T10:59:32.627Z,31.05
2018-06-01T11:02:05.563Z,33.22
2018-06-01T11:04:38.865Z,32.47
2018-06-01T11:07:11.884Z,31.35
2018-06-01T11:09:43.462Z,33.70
2018-06-01T11:12:16.488Z,34.35
2018-06-01T11:14:49.446Z,32.20
2018-06-01T11:17:19.367Z,31.87
2018-06-01T11:19:53.726Z,28.25
2018-06-01T11:22:28.344Z,29.42
2018-06-01T11:24:58.924Z,30.20
2018-06-01T11:27:31.753Z,29.33
2018-06-01T11:30:06.682Z,29.70
2018-06-01T11:32:39.813Z,30.15
2018-06-01T11:35:14.683Z,31.87
2018-06-01T11:37:49.526Z,31.73
2018-06-01T11:40:22.326Z,32.75
2018-06-01T11:42:57.002Z,33.28
2018-06-01T11:45:30.259Z,34.63
2018-06-01T11:48:01.773Z,34.20
2018-06-01T11:50:34.846Z,37.83
2018-06-01T11:53:06.389Z,41.42
2018-06-01T11:55:39.462Z,49.03
2018-06-01T11:58:13.106Z,45.45
2018-06-01T12:00:43.115Z,44.97
2018-06-01T12:03:14.976Z,46.65
2018-06-01T12:05:49.505Z,44.47
2018-06-01T12:08:22.573Z,48.47
2018-06-01T12:10:57.151Z,46.50
2018-06-01T12:13:28.335Z,44.72
2018-06-01T12:15:59.803Z,44.55
2018-06-01T12:18:32.882Z,43.47
2018-06-01T12:21:05.755Z,41.95
2018-06-01T12:23:37.322Z,46.03
2018-06-01T12:26:07.959Z,41.58
2018-06-01T12:28:39.789Z,43.17
2018-06-01T12:31:14.145Z,42.30
2018-06-01T12:33:47.181Z,43.85
2018-06-01T12:36:17.104Z,52.42
2018-06-01T12:38:48.779Z,46.72
2018-06-01T12:41:19.483Z,44.40
2018-06-01T12:43:51.163Z,44.40
2018-06-01T12:46:24.291Z,42.20
2018-06-01T12:48:57.306Z,43.08
2018-06-01T12:51:28.726Z,44.38
2018-06-01T12:54:03.461Z,43.85
2018-06-01T12:56:35.788Z,41.63
2018-06-01T12:59:07.328Z,41.28
2018-06-01T13:01:39.609Z,38.65
2018-06-01T13:04:12.608Z,36.00
2018-06-01T13:06:44.060Z,36.33
2018-06-01T13:09:15.606Z,34.10
2018-06-01T13:11:47.080Z,33.75
2018-06-01T13:14:19.003Z,34.97
2018-06-01T13:16:48.601Z,34.47
2018-06-01T13:19:20.712Z,32.70
2018-06-01T13:21:53.626Z,33.90
2018-06-01T13:24:25.509Z,35.47
2018-06-01T13:26:57.116Z,34.70
2018-06-01T13:29:28.486Z,31.30
2018-06-01T13:31:58.683Z,33.22
2018-06-01T13:34:28.578Z,33.05
2018-06-01T13:37:02.425Z,32.40
2018-06-01T13:39:34.638Z,30.15
2018-06-01T13:42:05.744Z,28.17
2018-06-01T13:44:36.335Z,28.58
2018-06-01T13:47:06.299Z,27.30
2018-06-01T13:49:37.765Z,26.65
2018-06-01T13:52:09.819Z,24.23
2018-06-01T13:54:41.682Z,24.30
2018-06-01T13:57:14.717Z,25.35
2018-06-01T13:59:47.817Z,26.27
2018-06-01T14:02:22.253Z,25.00
2018-06-01T14:04:52.274Z,24.45
2018-06-01T14:07:24.931Z,24.15
2018-06-01T14:09:58.065Z,21.73
2018-06-01T14:12:30.022Z,24.65
2018-06-01T14:15:02.894Z,25.25
2018-06-01T14:17:35.733Z,23.70
2018-06-01T14:20:07.865Z,22.00
2018-06-01T14:22:39.346Z,24.70
2018-06-01T14:25:09.258Z,24.80
2018-06-01T14:27:39.296Z,26.05
2018-06-01T14:30:11.925Z,26.67
2018-06-01T14:32:46.355Z,29.55
2018-06-01T14:35:19.365Z,29.02
2018-06-01T14:37:52.111Z,29.58
2018-06-01T14:40:23.948Z,29.27
2018-06-01T14:42:56.904Z,28.65
2018-06-01T14:45:28.503Z,29.75
2018-06-01T14:48:02.823Z,27.95
2018-06-01T14:50:36.067Z,27.67
2018-06-01T14:53:07.659Z,28.20
2018-06-01T14:55:40.606Z,26.40
2018-06-01T14:58:15.075Z,27.20
2018-06-01T15:00:47.204Z,31.73
2018-06-01T15:03:20.028Z,24.98
2018-06-01T15:05:53.077Z,23.45
2018-06-01T15:08:27.044Z,21.33
2018-06-01T15:11:00.354Z,20.30
2018-06-01T15:13:33.237Z,19.62
2018-06-01T15:16:06.457Z,20.60
2018-06-01T15:18:39.435Z,20.10
2018-06-01T15:21:09.556Z,18.95
2018-06-01T15:23:42.761Z,17.55
2018-06-01T15:26:14.267Z,16.23
2018-06-01T15:28:47.314Z,17.08
2018-06-01T15:31:20.630Z,16.73
2018-06-01T15:33:53.907Z,18.45
2018-06-01T15:36:27.193Z,17.05
2018-06-01T15:39:01.980Z,19.25
2018-06-01T15:41:34.938Z,19.45
2018-06-01T15:44:08.890Z,18.48
2018-06-01T15:46:40.359Z,20.17
2018-06-01T15:49:12.368Z,21.37
2018-06-01T15:51:42.563Z,24.37
2018-06-01T15:54:15.524Z,23.40
2018-06-01T15:56:50.014Z,22.95
2018-06-01T15:59:23.187Z,24.00
2018-06-01T16:01:53.289Z,26.00
2018-06-01T16:04:24.728Z,26.70
2018-06-01T16:06:57.980Z,27.90
2018-06-01T16:09:32.557Z,34.77
2018-06-01T16:12:03.894Z,30.40
2018-06-01T16:14:35.575Z,30.75
2018-06-01T16:17:08.549Z,37.97
2018-06-01T16:19:41.919Z,31.00
2018-06-01T16:22:16.696Z,31.12
2018-06-01T16:24:49.693Z,30.90
2018-06-01T16:27:24.096Z,32.65
2018-06-01T16:29:55.979Z,32.47
2018-06-01T16:32:27.535Z,35.45
2018-06-01T16:35:01.015Z,35.15
2018-06-01T16:37:33.359Z,31.92
2018-06-01T16:40:08.195Z,34.80
2018-06-01T16:42:41.384Z,35.40
2018-06-01T16:45:11.432Z,36.13
2018-06-01T16:47:44.782Z,36.78
2018-06-01T16:50:16.635Z,36.88
2018-06-01T16:52:48.100Z,37.38
2018-06-01T16:55:18.165Z,39.08
2018-06-01T16:57:52.583Z,38.20
2018-06-01T17:00:25.625Z,39.65
2018-06-01T17:02:59.002Z,40.60
2018-06-01T17:05:33.649Z,42.75
2018-06-01T17:08:06.685Z,46.83
2018-06-01T17:10:39.749Z,46.92
2018-06-01T17:13:11.454Z,46.17
2018-06-01T17:15:43.051Z,47.60
2018-06-01T17:18:15.508Z,45.97
2018-06-01T17:20:45.811Z,45.78
2018-06-01T17:23:17.230Z,44.90
2018-06-01T17:25:49.082Z,47.72
2018-06-01T17:28:23.591Z,46.67
2018-06-01T17:30:56.571Z,43.90
2018-06-01T17:33:26.600Z,45.08
2018-06-01T17:35:59.734Z,46.03
2018-06-01T17:38:32.997Z,47.00
2018-06-01T17:41:06.112Z,45.05
2018-06-01T17:43:40.831Z,45.95
2018-06-01T17:46:15.393Z,44.47
2018-06-01T17:48:50.205Z,46.00
2018-06-01T17:51:20.746Z,46.28
2018-06-01T17:53:53.680Z,46.08
2018-06-01T17:56:26.166Z,46.55
2018-06-01T17:58:59.653Z,44.38
2018-06-01T18:01:32.793Z,44.53
2018-06-01T18:04:04.322Z,43.95
2018-06-01T18:06:37.419Z,42.67
2018-06-01T18:09:11.674Z,42.35
2018-06-01T18:11:43.409Z,41.45
2018-06-01T18:14:15.073Z,43.65
2018-06-01T18:16:48.131Z,45.08
2018-06-01T18:19:21.411Z,46.10
2018-06-01T18:21:52.956Z,43.50
2018-06-01T18:24:23.058Z,44.88
2018-06-01T18:26:54.779Z,44.22
2018-06-01T18:29:29.600Z,47.53
2018-06-01T18:32:01.194Z,48.70
2018-06-01T18:34:34.462Z,44.17
2018-06-01T18:37:04.764Z,45.88
2018-06-01T18:39:39.274Z,47.17
2018-06-01T18:42:12.237Z,50.47
2018-06-01T18:44:45.286Z,49.08
2018-06-01T18:47:20.173Z,50.30
2018-06-01T18:49:55.049Z,50.60
2018-06-01T18:52:26.749Z,51.75
2018-06-01T18:54:58.345Z,51.72
2018-06-01T18:57:31.529Z,49.67
2018-06-01T19:00:03.659Z,52.97
2018-06-01T19:02:35.391Z,52.05
2018-06-01T19:05:08.465Z,54.15
2018-06-01T19:07:40.580Z,53.75
2018-06-01T19:10:13.566Z,54.70
2018-06-01T19:12:46.714Z,54.42
2018-06-01T19:15:21.421Z,57.25
2018-06-01T19:17:52.961Z,53.20
2018-06-01T19:20:24.583Z,56.58
2018-06-01T19:22:57.671Z,58.00
2018-06-01T19:25:29.262Z,58.95
2018-06-01T19:28:02.300Z,59.22
2018-06-01T19:30:34.155Z,61.25
2018-06-01T19:33:05.664Z,56.97
2018-06-01T19:35:38.548Z,58.25
2018-06-01T19:38:11.691Z,58.60
2018-06-01T19:40:44.748Z,60.33
2018-06-01T19:43:19.688Z,59.55
2018-06-01T19:45:52.717Z,62.28
2018-06-01T19:48:24.626Z,64.82
2018-06-01T19:50:56.458Z,66.62
2018-06-01T19:53:29.619Z,63.90
2018-06-01T19:56:04.634Z,63.60
2018-06-01T19:58:40.338Z,57.13
2018-06-01T20:01:13.973Z,61.97
2018-06-01T20:03:47.167Z,64.30
2018-06-01T20:06:21.823Z,62.70
2018-06-01T20:08:53.652Z,61.25
2018-06-01T20:11:27.215Z,66.60
2018-06-01T20:14:01.889Z,64.10
2018-06-01T20:16:32.058Z,60.08
2018-06-01T20:19:03.724Z,59.80
2018-06-01T20:21:37.020Z,56.37
2018-06-01T20:24:10.622Z,56.72
2018-06-01T20:26:43.774Z,57.50
2018-06-01T20:29:14.293Z,56.22
2018-06-01T20:31:49.028Z,57.08
2018-06-01T20:34:21.996Z,56.22
2018-06-01T20:36:53.778Z,58.13
2018-06-01T20:39:28.983Z,57.25
2018-06-01T20:42:02.097Z,58.15
2018-06-01T20:44:33.536Z,58.55
2018-06-01T20:47:05.253Z,56.83
2018-06-01T20:49:38.921Z,56.00
2018-06-01T20:52:10.827Z,53.95
2018-06-01T20:54:44.021Z,51.17
2018-06-01T20:57:18.587Z,50.58
2018-06-01T20:59:51.587Z,49.08
2018-06-01T21:02:23.310Z,48.10
2018-06-01T21:04:58.401Z,54.00
2018-06-01T21:07:30.008Z,43.40
2018-06-01T21:10:01.582Z,39.85
2018-06-01T21:12:33.975Z,37.90
2018-06-01T21:15:07.363Z,35.35
2018-06-01T21:17:39.012Z,36.22
2018-06-01T21:20:12.289Z,34.60
2018-06-01T21:22:45.322Z,34.05
2018-06-01T21:25:19.793Z,34.00
2018-06-01T21:27:52.915Z,31.33
2018-06-01T21:30:24.451Z,32.20
2018-06-01T21:32:56.829Z,32.70
2018-06-01T21:35:28.565Z,33.60
2018-06-01T21:38:03.481Z,34.03
2018-06-01T21:40:35.273Z,32.38
2018-06-01T21:43:09.354Z,32.92
2018-06-01T21:45:40.951Z,36.08
2018-06-01T21:48:12.705Z,33.00
2018-06-01T21:50:44.364Z,35.05
2018-06-01T21:53:17.763Z,36.97
2018-06-01T21:55:52.573Z,39.25
2018-06-01T21:58:27.177Z,39.40
2018-06-01T22:00:58.840Z,40.00
2018-06-01T22:03:33.632Z,41.72
2018-06-01T22:06:07.202Z,40.50
2018-06-01T22:08:37.566Z,43.47
2018-06-01T22:11:10.904Z,42.95
2018-06-01T22:13:42.000Z,42.92
2018-06-01T22:16:14.204Z,44.25
2018-06-01T22:18:47.295Z,44.83
2018-06-01T22:21:19.906Z,46.00
2018-06-01T22:23:53.024Z,46.40
2018-06-01T22:26:26.108Z,47.15
2018-06-01T22:28:59.542Z,48.38
2018-06-01T22:31:33.955Z,53.72
2018-06-01T22:34:08.760Z,52.67
2018-06-01T22:36:43.643Z,51.58
2018-06-01T22:39:18.540Z,53.67
2018-06-01T22:41:51.006Z,54.50
2018-06-01T22:44:24.281Z,50.83
2018-06-01T22:46:57.297Z,51.25
2018-06-01T22:49:32.032Z,50.30
2018-06-01T22:52:03.134Z,47.20
2018-06-01T22:54:33.284Z,46.83
2018-06-01T22:57:05.397Z,45.83
2018-06-01T22:59:36.973Z,41.55
2018-06-01T23:02:11.539Z,40.25
2018-06-01T23:04:44.119Z,41.10
2018-06-01T23:07:16.961Z,39.63
2018-06-01T23:09:48.631Z,36.78
2018-06-01T23:12:20.095Z,37.90
2018-06-01T23:14:50.337Z,36.75
2018-06-01T23:17:23.706Z,36.45
2018-06-01T23:19:56.815Z,34.58
2018-06-01T23:22:30.113Z,36.03
2018-06-01T23:25:01.832Z,34.92
2018-06-01T23:27:33.790Z,36.55
2018-06-01T23:30:05.497Z,36.90
2018-06-01T23:32:39.228Z,36.90
2018-06-01T23:35:13.932Z,36.75
2018-06-01T23:37:47.442Z,35.95
2018-06-01T23:40:20.432Z,38.70
2018-06-01T23:42:53.765Z,36.50
2018-06-01T23:45:28.478Z,37.40
2018-06-01T23:48:03.572Z,36.10
2018-06-01T23:50:35.565Z,32.70
2018-06-01T23:53:07.223Z,40.53
2018-06-01T23:55:41.997Z,28.65
2018-06-01T23:58:15.231Z,26.02
